sensor_id;sensor_type;location;lat;lon;timestamp;P1;durP1;ratioP1;P2;durP2;ratioP2
13311;SDS011;34033;48.672;9.376;2022-09-02T00:02:11;2.70;;;2.23;;
13311;SDS011;34033;48.672;9.376;2022-09-02T00:04:37;2.20;;;2.10;;
13311;SDS011;34033;48.672;9.376;2022-09-02T00:07:03;2.00;;;1.90;;
13311;SDS011;34033;48.672;9.376;2022-09-02T00:09:29;2.40;;;2.30;;
13311;SDS011;34033;48.672;9.376;2022-09-02T00:11:54;2.40;;;2.20;;
13311;SDS011;34033;48.672;9.376;2022-09-02T00:14:22;2.40;;;2.30;;
13311;SDS011;34033;48.672;9.376;2022-09-02T00:16:53;2.30;;;2.20;;
13311;SDS011;34033;48.672;9.376;2022-09-02T00:19:20;2.50;;;2.30;;
13311;SDS011;34033;48.672;9.376;2022-09-02T00:21:50;2.57;;;2.37;;
13311;SDS011;34033;48.672;9.376;2022-09-02T00:24:17;2.20;;;2.10;;
13311;SDS011;34033;48.672;9.376;2022-09-02T00:26:43;1.90;;;1.80;;
13311;SDS011;34033;48.672;9.376;2022-09-02T00:29:09;3.37;;;2.33;;
13311;SDS011;34033;48.672;9.376;2022-09-02T00:31:35;2.40;;;2.20;;
13311;SDS011;34033;48.672;9.376;2022-09-02T00:34:01;2.70;;;2.10;;
13311;SDS011;34033;48.672;9.376;2022-09-02T00:36:27;2.20;;;2.10;;
13311;SDS011;34033;48.672;9.376;2022-09-02T00:38:53;2.17;;;2.07;;
13311;SDS011;34033;48.672;9.376;2022-09-02T00:41:20;2.03;;;1.93;;
13311;SDS011;34033;48.672;9.376;2022-09-02T00:46:23;2.60;;;2.40;;
13311;SDS011;34033;48.672;9.376;2022-09-02T00:48:55;2.13;;;2.03;;
13311;SDS011;34033;48.672;9.376;2022-09-02T00:51:25;3.57;;;1.87;;
13311;SDS011;34033;48.672;9.376;2022-09-02T00:53:56;2.47;;;2.27;;
13311;SDS011;34033;48.672;9.376;2022-09-02T00:56:23;2.90;;;2.30;;
13311;SDS011;34033;48.672;9.376;2022-09-02T00:58:52;2.20;;;1.83;;
13311;SDS011;34033;48.672;9.376;2022-09-02T01:01:18;2.57;;;2.07;;
13311;SDS011;34033;48.672;9.376;2022-09-02T01:03:46;2.23;;;2.13;;
13311;SDS011;34033;48.672;9.376;2022-09-02T01:06:12;3.23;;;2.23;;
13311;SDS011;34033;48.672;9.376;2022-09-02T01:08:39;2.23;;;2.07;;
13311;SDS011;34033;48.672;9.376;2022-09-02T01:11:09;4.30;;;2.20;;
13311;SDS011;34033;48.672;9.376;2022-09-02T01:13:39;2.27;;;2.07;;
13311;SDS011;34033;48.672;9.376;2022-09-02T01:18:37;2.40;;;2.03;;
13311;SDS011;34033;48.672;9.376;2022-09-02T01:21:04;2.00;;;1.90;;
13311;SDS011;34033;48.672;9.376;2022-09-02T01:23:30;2.87;;;2.00;;
13311;SDS011;34033;48.672;9.376;2022-09-02T01:25:56;3.40;;;1.97;;
13311;SDS011;34033;48.672;9.376;2022-09-02T01:28:22;2.17;;;2.07;;
13311;SDS011;34033;48.672;9.376;2022-09-02T01:30:49;2.20;;;2.10;;
13311;SDS011;34033;48.672;9.376;2022-09-02T01:33:17;2.10;;;2.00;;
13311;SDS011;34033;48.672;9.376;2022-09-02T01:35:44;2.00;;;1.90;;
13311;SDS011;34033;48.672;9.376;2022-09-02T01:38:10;2.10;;;2.00;;
13311;SDS011;34033;48.672;9.376;2022-09-02T01:40:36;1.97;;;1.87;;
13311;SDS011;34033;48.672;9.376;2022-09-02T01:43:04;2.30;;;2.10;;
13311;SDS011;34033;48.672;9.376;2022-09-02T01:45:32;2.13;;;2.03;;
13311;SDS011;34033;48.672;9.376;2022-09-02T01:47:59;1.90;;;1.80;;
13311;SDS011;34033;48.672;9.376;2022-09-02T01:50:25;1.90;;;1.80;;
13311;SDS011;34033;48.672;9.376;2022-09-02T01:52:51;1.90;;;1.80;;
13311;SDS011;34033;48.672;9.376;2022-09-02T01:55:17;3.47;;;2.40;;
13311;SDS011;34033;48.672;9.376;2022-09-02T01:57:42;2.20;;;2.10;;
13311;SDS011;34033;48.672;9.376;2022-09-02T02:00:08;2.47;;;1.93;;
13311;SDS011;34033;48.672;9.376;2022-09-02T02:02:35;2.37;;;2.03;;
13311;SDS011;34033;48.672;9.376;2022-09-02T02:05:01;2.00;;;1.90;;
13311;SDS011;34033;48.672;9.376;2022-09-02T02:07:27;1.97;;;1.87;;
13311;SDS011;34033;48.672;9.376;2022-09-02T02:09:52;2.07;;;1.97;;
13311;SDS011;34033;48.672;9.376;2022-09-02T02:12:18;2.00;;;1.90;;
13311;SDS011;34033;48.672;9.376;2022-09-02T02:14:43;1.90;;;1.80;;
13311;SDS011;34033;48.672;9.376;2022-09-02T02:17:09;2.10;;;2.00;;
13311;SDS011;34033;48.672;9.376;2022-09-02T02:19:34;2.30;;;2.20;;
13311;SDS011;34033;48.672;9.376;2022-09-02T02:22:00;2.10;;;2.00;;
13311;SDS011;34033;48.672;9.376;2022-09-02T02:24:26;2.00;;;1.90;;
13311;SDS011;34033;48.672;9.376;2022-09-02T02:26:51;2.23;;;1.90;;
13311;SDS011;34033;48.672;9.376;2022-09-02T02:29:17;4.20;;;1.90;;
13311;SDS011;34033;48.672;9.376;2022-09-02T02:31:43;2.20;;;2.00;;
13311;SDS011;34033;48.672;9.376;2022-09-02T02:34:09;1.90;;;1.80;;
13311;SDS011;34033;48.672;9.376;2022-09-02T02:36:35;2.00;;;1.90;;
13311;SDS011;34033;48.672;9.376;2022-09-02T02:39:02;3.30;;;1.83;;
13311;SDS011;34033;48.672;9.376;2022-09-02T02:41:29;1.90;;;1.80;;
13311;SDS011;34033;48.672;9.376;2022-09-02T02:43:55;2.00;;;1.90;;
13311;SDS011;34033;48.672;9.376;2022-09-02T02:46:20;2.63;;;2.17;;
13311;SDS011;34033;48.672;9.376;2022-09-02T02:48:46;2.30;;;2.10;;
13311;SDS011;34033;48.672;9.376;2022-09-02T02:51:11;1.80;;;1.70;;
13311;SDS011;34033;48.672;9.376;2022-09-02T02:53:37;2.00;;;1.90;;
13311;SDS011;34033;48.672;9.376;2022-09-02T02:56:03;1.73;;;1.63;;
13311;SDS011;34033;48.672;9.376;2022-09-02T02:58:29;1.80;;;1.70;;
13311;SDS011;34033;48.672;9.376;2022-09-02T03:00:56;2.10;;;1.90;;
13311;SDS011;34033;48.672;9.376;2022-09-02T03:03:22;1.87;;;1.77;;
13311;SDS011;34033;48.672;9.376;2022-09-02T03:05:48;1.80;;;1.70;;
13311;SDS011;34033;48.672;9.376;2022-09-02T03:08:14;2.10;;;1.90;;
13311;SDS011;34033;48.672;9.376;2022-09-02T03:10:42;1.70;;;1.60;;
13311;SDS011;34033;48.672;9.376;2022-09-02T03:13:08;2.13;;;1.73;;
13311;SDS011;34033;48.672;9.376;2022-09-02T03:15:36;2.10;;;2.00;;
13311;SDS011;34033;48.672;9.376;2022-09-02T03:18:02;2.07;;;1.97;;
13311;SDS011;34033;48.672;9.376;2022-09-02T03:20:28;2.30;;;1.97;;
13311;SDS011;34033;48.672;9.376;2022-09-02T03:22:55;2.00;;;1.80;;
13311;SDS011;34033;48.672;9.376;2022-09-02T03:25:23;2.23;;;2.13;;
13311;SDS011;34033;48.672;9.376;2022-09-02T03:27:50;2.37;;;2.20;;
13311;SDS011;34033;48.672;9.376;2022-09-02T03:30:20;2.30;;;2.20;;
13311;SDS011;34033;48.672;9.376;2022-09-02T03:32:50;2.30;;;2.20;;
13311;SDS011;34033;48.672;9.376;2022-09-02T03:35:17;2.47;;;2.27;;
13311;SDS011;34033;48.672;9.376;2022-09-02T03:37:45;2.70;;;2.50;;
13311;SDS011;34033;48.672;9.376;2022-09-02T03:40:13;3.30;;;2.53;;
13311;SDS011;34033;48.672;9.376;2022-09-02T03:42:41;3.13;;;2.30;;
13311;SDS011;34033;48.672;9.376;2022-09-02T03:45:07;2.30;;;2.20;;
13311;SDS011;34033;48.672;9.376;2022-09-02T03:47:34;2.57;;;2.37;;
13311;SDS011;34033;48.672;9.376;2022-09-02T03:50:00;2.60;;;2.40;;
13311;SDS011;34033;48.672;9.376;2022-09-02T03:52:27;2.10;;;2.00;;
13311;SDS011;34033;48.672;9.376;2022-09-02T03:54:53;2.80;;;2.50;;
13311;SDS011;34033;48.672;9.376;2022-09-02T03:57:19;8.80;;;3.13;;
13311;SDS011;34033;48.672;9.376;2022-09-02T03:59:47;2.70;;;2.40;;
13311;SDS011;34033;48.672;9.376;2022-09-02T04:02:12;2.37;;;2.20;;
13311;SDS011;34033;48.672;9.376;2022-09-02T04:04:38;3.57;;;2.30;;
13311;SDS011;34033;48.672;9.376;2022-09-02T04:07:03;2.70;;;2.50;;
13311;SDS011;34033;48.672;9.376;2022-09-02T04:09:28;2.90;;;2.70;;
13311;SDS011;34033;48.672;9.376;2022-09-02T04:11:54;3.03;;;2.73;;
13311;SDS011;34033;48.672;9.376;2022-09-02T04:14:19;2.80;;;2.60;;
13311;SDS011;34033;48.672;9.376;2022-09-02T04:23:28;2.20;;;2.10;;
13311;SDS011;34033;48.672;9.376;2022-09-02T04:25:55;2.57;;;2.47;;
13311;SDS011;34033;48.672;9.376;2022-09-02T04:28:21;3.37;;;3.07;;
13311;SDS011;34033;48.672;9.376;2022-09-02T04:30:46;3.03;;;2.57;;
13311;SDS011;34033;48.672;9.376;2022-09-02T04:33:12;2.60;;;2.40;;
13311;SDS011;34033;48.672;9.376;2022-09-02T04:35:41;2.60;;;2.40;;
13311;SDS011;34033;48.672;9.376;2022-09-02T04:38:09;2.43;;;2.23;;
13311;SDS011;34033;48.672;9.376;2022-09-02T04:40:34;4.20;;;2.80;;
13311;SDS011;34033;48.672;9.376;2022-09-02T04:43:04;7.70;;;2.40;;
13311;SDS011;34033;48.672;9.376;2022-09-02T04:45:29;2.60;;;2.40;;
13311;SDS011;34033;48.672;9.376;2022-09-02T04:47:55;2.90;;;2.70;;
13311;SDS011;34033;48.672;9.376;2022-09-02T04:50:20;2.47;;;2.27;;
13311;SDS011;34033;48.672;9.376;2022-09-02T04:52:45;4.47;;;2.47;;
13311;SDS011;34033;48.672;9.376;2022-09-02T04:55:11;2.50;;;2.30;;
13311;SDS011;34033;48.672;9.376;2022-09-02T04:57:36;6.33;;;3.20;;
13311;SDS011;34033;48.672;9.376;2022-09-02T05:00:05;3.00;;;2.20;;
13311;SDS011;34033;48.672;9.376;2022-09-02T05:02:32;2.97;;;2.77;;
13311;SDS011;34033;48.672;9.376;2022-09-02T05:04:57;3.60;;;3.30;;
13311;SDS011;34033;48.672;9.376;2022-09-02T05:07:23;3.30;;;2.70;;
13311;SDS011;34033;48.672;9.376;2022-09-02T05:09:48;3.73;;;2.90;;
13311;SDS011;34033;48.672;9.376;2022-09-02T05:12:14;4.23;;;2.90;;
13311;SDS011;34033;48.672;9.376;2022-09-02T05:14:39;5.30;;;2.80;;
13311;SDS011;34033;48.672;9.376;2022-09-02T05:17:05;2.73;;;2.50;;
13311;SDS011;34033;48.672;9.376;2022-09-02T05:19:30;3.30;;;2.40;;
13311;SDS011;34033;48.672;9.376;2022-09-02T05:21:56;4.63;;;2.90;;
13311;SDS011;34033;48.672;9.376;2022-09-02T05:24:23;3.10;;;2.53;;
13311;SDS011;34033;48.672;9.376;2022-09-02T05:26:52;2.57;;;2.37;;
13311;SDS011;34033;48.672;9.376;2022-09-02T05:29:18;3.00;;;2.80;;
13311;SDS011;34033;48.672;9.376;2022-09-02T05:31:44;3.60;;;3.30;;
13311;SDS011;34033;48.672;9.376;2022-09-02T05:34:10;5.17;;;3.67;;
13311;SDS011;34033;48.672;9.376;2022-09-02T05:36:36;6.33;;;2.90;;
13311;SDS011;34033;48.672;9.376;2022-09-02T05:39:01;4.10;;;2.80;;
13311;SDS011;34033;48.672;9.376;2022-09-02T05:41:29;2.80;;;2.60;;
13311;SDS011;34033;48.672;9.376;2022-09-02T05:43:56;2.93;;;2.67;;
13311;SDS011;34033;48.672;9.376;2022-09-02T05:46:24;3.03;;;2.50;;
13311;SDS011;34033;48.672;9.376;2022-09-02T05:48:50;2.70;;;2.50;;
13311;SDS011;34033;48.672;9.376;2022-09-02T05:54:06;2.70;;;2.50;;
13311;SDS011;34033;48.672;9.376;2022-09-02T05:56:36;2.60;;;2.40;;
13311;SDS011;34033;48.672;9.376;2022-09-02T05:59:06;3.57;;;2.60;;
13311;SDS011;34033;48.672;9.376;2022-09-02T06:01:32;2.57;;;2.37;;
13311;SDS011;34033;48.672;9.376;2022-09-02T06:03:58;2.50;;;2.30;;
13311;SDS011;34033;48.672;9.376;2022-09-02T06:06:26;2.30;;;2.10;;
13311;SDS011;34033;48.672;9.376;2022-09-02T06:08:52;2.30;;;2.20;;
13311;SDS011;34033;48.672;9.376;2022-09-02T06:11:17;2.00;;;1.77;;
13311;SDS011;34033;48.672;9.376;2022-09-02T06:13:43;1.80;;;1.70;;
13311;SDS011;34033;48.672;9.376;2022-09-02T06:16:11;2.03;;;1.93;;
13311;SDS011;34033;48.672;9.376;2022-09-02T06:18:39;2.40;;;2.03;;
13311;SDS011;34033;48.672;9.376;2022-09-02T06:21:04;4.07;;;2.63;;
13311;SDS011;34033;48.672;9.376;2022-09-02T06:23:32;2.43;;;2.30;;
13311;SDS011;34033;48.672;9.376;2022-09-02T06:25:58;2.33;;;2.13;;
13311;SDS011;34033;48.672;9.376;2022-09-02T06:28:24;1.97;;;1.80;;
13311;SDS011;34033;48.672;9.376;2022-09-02T06:30:49;2.87;;;1.90;;
13311;SDS011;34033;48.672;9.376;2022-09-02T06:33:15;2.10;;;2.00;;
13311;SDS011;34033;48.672;9.376;2022-09-02T06:35:41;2.33;;;2.13;;
13311;SDS011;34033;48.672;9.376;2022-09-02T06:38:08;2.10;;;1.90;;
13311;SDS011;34033;48.672;9.376;2022-09-02T06:40:35;1.80;;;1.70;;
13311;SDS011;34033;48.672;9.376;2022-09-02T06:43:01;2.07;;;1.97;;
13311;SDS011;34033;48.672;9.376;2022-09-02T06:45:26;1.97;;;1.87;;
13311;SDS011;34033;48.672;9.376;2022-09-02T06:47:52;1.83;;;1.67;;
13311;SDS011;34033;48.672;9.376;2022-09-02T06:50:18;1.80;;;1.70;;
13311;SDS011;34033;48.672;9.376;2022-09-02T06:52:44;2.00;;;1.90;;
13311;SDS011;34033;48.672;9.376;2022-09-02T06:55:09;1.70;;;1.60;;
13311;SDS011;34033;48.672;9.376;2022-09-02T06:57:36;1.83;;;1.73;;
13311;SDS011;34033;48.672;9.376;2022-09-02T07:00:05;1.80;;;1.70;;
13311;SDS011;34033;48.672;9.376;2022-09-02T07:02:32;1.80;;;1.70;;
13311;SDS011;34033;48.672;9.376;2022-09-02T07:04:57;1.70;;;1.60;;
13311;SDS011;34033;48.672;9.376;2022-09-02T07:07:39;2.27;;;1.83;;
13311;SDS011;34033;48.672;9.376;2022-09-02T07:10:07;1.60;;;1.50;;
13311;SDS011;34033;48.672;9.376;2022-09-02T07:12:36;1.80;;;1.70;;
13311;SDS011;34033;48.672;9.376;2022-09-02T07:15:03;1.80;;;1.70;;
13311;SDS011;34033;48.672;9.376;2022-09-02T07:17:30;1.60;;;1.50;;
13311;SDS011;34033;48.672;9.376;2022-09-02T07:19:55;2.27;;;1.77;;
13311;SDS011;34033;48.672;9.376;2022-09-02T07:22:23;4.70;;;1.80;;
13311;SDS011;34033;48.672;9.376;2022-09-02T07:24:49;1.73;;;1.63;;
13311;SDS011;34033;48.672;9.376;2022-09-02T07:27:15;1.40;;;1.40;;
13311;SDS011;34033;48.672;9.376;2022-09-02T07:29:40;2.20;;;1.80;;
13311;SDS011;34033;48.672;9.376;2022-09-02T07:32:08;1.73;;;1.63;;
13311;SDS011;34033;48.672;9.376;2022-09-02T07:34:34;1.63;;;1.53;;
13311;SDS011;34033;48.672;9.376;2022-09-02T07:36:59;1.70;;;1.60;;
13311;SDS011;34033;48.672;9.376;2022-09-02T07:39:25;1.77;;;1.67;;
13311;SDS011;34033;48.672;9.376;2022-09-02T07:41:50;1.70;;;1.60;;
13311;SDS011;34033;48.672;9.376;2022-09-02T07:44:16;3.00;;;1.90;;
13311;SDS011;34033;48.672;9.376;2022-09-02T07:46:43;1.63;;;1.53;;
13311;SDS011;34033;48.672;9.376;2022-09-02T07:49:10;1.63;;;1.53;;
13311;SDS011;34033;48.672;9.376;2022-09-02T07:51:37;1.67;;;1.57;;
13311;SDS011;34033;48.672;9.376;2022-09-02T07:54:06;1.77;;;1.40;;
13311;SDS011;34033;48.672;9.376;2022-09-02T07:56:32;1.60;;;1.50;;
13311;SDS011;34033;48.672;9.376;2022-09-02T07:58:58;1.63;;;1.50;;
13311;SDS011;34033;48.672;9.376;2022-09-02T08:01:24;2.40;;;1.60;;
13311;SDS011;34033;48.672;9.376;2022-09-02T08:03:49;1.63;;;1.53;;
13311;SDS011;34033;48.672;9.376;2022-09-02T08:06:16;1.83;;;1.60;;
13311;SDS011;34033;48.672;9.376;2022-09-02T08:08:42;1.80;;;1.70;;
13311;SDS011;34033;48.672;9.376;2022-09-02T08:11:08;1.77;;;1.67;;
13311;SDS011;34033;48.672;9.376;2022-09-02T08:13:37;1.50;;;1.40;;
13311;SDS011;34033;48.672;9.376;2022-09-02T08:16:03;1.43;;;1.33;;
13311;SDS011;34033;48.672;9.376;2022-09-02T08:18:29;1.20;;;1.20;;
13311;SDS011;34033;48.672;9.376;2022-09-02T08:20:55;1.27;;;1.27;;
13311;SDS011;34033;48.672;9.376;2022-09-02T08:23:20;1.30;;;1.30;;
13311;SDS011;34033;48.672;9.376;2022-09-02T08:25:46;1.37;;;1.30;;
13311;SDS011;34033;48.672;9.376;2022-09-02T08:28:11;2.00;;;1.40;;
13311;SDS011;34033;48.672;9.376;2022-09-02T08:30:37;1.40;;;1.40;;
13311;SDS011;34033;48.672;9.376;2022-09-02T08:33:03;1.33;;;1.30;;
13311;SDS011;34033;48.672;9.376;2022-09-02T08:35:28;1.60;;;1.50;;
13311;SDS011;34033;48.672;9.376;2022-09-02T08:37:54;1.40;;;1.30;;
13311;SDS011;34033;48.672;9.376;2022-09-02T08:40:22;1.53;;;1.43;;
13311;SDS011;34033;48.672;9.376;2022-09-02T08:42:52;1.50;;;1.40;;
13311;SDS011;34033;48.672;9.376;2022-09-02T08:45:24;1.50;;;1.40;;
13311;SDS011;34033;48.672;9.376;2022-09-02T08:48:10;1.30;;;1.20;;
13311;SDS011;34033;48.672;9.376;2022-09-02T08:50:38;1.20;;;1.20;;
13311;SDS011;34033;48.672;9.376;2022-09-02T08:53:20;1.50;;;1.40;;
13311;SDS011;34033;48.672;9.376;2022-09-02T08:55:54;1.20;;;1.20;;
13311;SDS011;34033;48.672;9.376;2022-09-02T08:58:23;1.30;;;1.20;;
13311;SDS011;34033;48.672;9.376;2022-09-02T09:04:08;2.77;;;1.30;;
13311;SDS011;34033;48.672;9.376;2022-09-02T09:12:26;1.37;;;1.37;;
13311;SDS011;34033;48.672;9.376;2022-09-02T09:17:36;1.50;;;1.20;;
13311;SDS011;34033;48.672;9.376;2022-09-02T09:20:11;1.57;;;1.20;;
13311;SDS011;34033;48.672;9.376;2022-09-02T09:22:43;1.40;;;1.40;;
13311;SDS011;34033;48.672;9.376;2022-09-02T09:25:13;1.30;;;1.20;;
13311;SDS011;34033;48.672;9.376;2022-09-02T09:27:40;1.00;;;1.00;;
13311;SDS011;34033;48.672;9.376;2022-09-02T09:30:07;1.20;;;1.10;;
13311;SDS011;34033;48.672;9.376;2022-09-02T09:32:35;1.33;;;1.10;;
13311;SDS011;34033;48.672;9.376;2022-09-02T09:35:06;1.40;;;1.10;;
13311;SDS011;34033;48.672;9.376;2022-09-02T09:42:56;1.20;;;1.10;;
13311;SDS011;34033;48.672;9.376;2022-09-02T09:45:32;1.23;;;1.17;;
13311;SDS011;34033;48.672;9.376;2022-09-02T09:50:41;1.03;;;1.00;;
13311;SDS011;34033;48.672;9.376;2022-09-02T09:53:14;1.07;;;1.07;;
13311;SDS011;34033;48.672;9.376;2022-09-02T09:55:49;0.90;;;0.90;;
13311;SDS011;34033;48.672;9.376;2022-09-02T09:58:17;0.97;;;0.90;;
13311;SDS011;34033;48.672;9.376;2022-09-02T10:00:43;0.93;;;0.90;;
13311;SDS011;34033;48.672;9.376;2022-09-02T10:03:09;0.97;;;0.97;;
13311;SDS011;34033;48.672;9.376;2022-09-02T10:05:46;0.90;;;0.90;;
13311;SDS011;34033;48.672;9.376;2022-09-02T10:10:39;1.10;;;1.10;;
13311;SDS011;34033;48.672;9.376;2022-09-02T10:13:24;0.93;;;0.93;;
13311;SDS011;34033;48.672;9.376;2022-09-02T10:18:56;1.03;;;0.97;;
13311;SDS011;34033;48.672;9.376;2022-09-02T10:21:38;0.97;;;0.97;;
13311;SDS011;34033;48.672;9.376;2022-09-02T10:24:41;0.90;;;0.90;;
13311;SDS011;34033;48.672;9.376;2022-09-02T10:27:11;1.00;;;1.00;;
13311;SDS011;34033;48.672;9.376;2022-09-02T10:34:52;1.33;;;1.17;;
13311;SDS011;34033;48.672;9.376;2022-09-02T10:37:22;1.23;;;1.13;;
13311;SDS011;34033;48.672;9.376;2022-09-02T10:45:13;1.00;;;1.00;;
13311;SDS011;34033;48.672;9.376;2022-09-02T10:50:49;1.10;;;1.03;;
13311;SDS011;34033;48.672;9.376;2022-09-02T10:55:55;1.00;;;1.00;;
13311;SDS011;34033;48.672;9.376;2022-09-02T11:01:19;1.03;;;0.97;;
13311;SDS011;34033;48.672;9.376;2022-09-02T11:06:51;0.97;;;0.97;;
13311;SDS011;34033;48.672;9.376;2022-09-02T11:11:54;1.00;;;1.00;;
13311;SDS011;34033;48.672;9.376;2022-09-02T11:14:34;0.80;;;0.80;;
13311;SDS011;34033;48.672;9.376;2022-09-02T11:17:24;1.37;;;1.00;;
13311;SDS011;34033;48.672;9.376;2022-09-02T11:20:04;0.90;;;0.90;;
13311;SDS011;34033;48.672;9.376;2022-09-02T11:25:23;1.30;;;1.10;;
13311;SDS011;34033;48.672;9.376;2022-09-02T11:30:51;1.17;;;1.13;;
13311;SDS011;34033;48.672;9.376;2022-09-02T11:36:23;1.00;;;1.00;;
13311;SDS011;34033;48.672;9.376;2022-09-02T11:38:51;2.83;;;1.00;;
13311;SDS011;34033;48.672;9.376;2022-09-02T11:41:27;1.00;;;1.00;;
13311;SDS011;34033;48.672;9.376;2022-09-02T11:46:26;2.57;;;1.20;;
13311;SDS011;34033;48.672;9.376;2022-09-02T11:54:38;1.00;;;1.00;;
13311;SDS011;34033;48.672;9.376;2022-09-02T11:57:09;1.97;;;1.10;;
13311;SDS011;34033;48.672;9.376;2022-09-02T12:03:00;1.20;;;1.20;;
13311;SDS011;34033;48.672;9.376;2022-09-02T12:11:08;1.13;;;1.13;;
13311;SDS011;34033;48.672;9.376;2022-09-02T12:21:18;1.13;;;1.13;;
13311;SDS011;34033;48.672;9.376;2022-09-02T12:26:12;0.97;;;0.97;;
13311;SDS011;34033;48.672;9.376;2022-09-02T12:28:38;1.20;;;1.10;;
13311;SDS011;34033;48.672;9.376;2022-09-02T12:33:37;1.00;;;1.00;;
13311;SDS011;34033;48.672;9.376;2022-09-02T12:36:05;1.00;;;1.00;;
13311;SDS011;34033;48.672;9.376;2022-09-02T12:38:38;1.10;;;1.10;;
13311;SDS011;34033;48.672;9.376;2022-09-02T12:49:03;0.87;;;0.87;;
13311;SDS011;34033;48.672;9.376;2022-09-02T12:54:45;1.23;;;1.23;;
13311;SDS011;34033;48.672;9.376;2022-09-02T12:57:12;0.90;;;0.90;;
13311;SDS011;34033;48.672;9.376;2022-09-02T12:59:40;0.97;;;0.97;;
13311;SDS011;34033;48.672;9.376;2022-09-02T13:24:03;1.17;;;1.07;;
13311;SDS011;34033;48.672;9.376;2022-09-02T13:32:13;1.00;;;1.00;;
13311;SDS011;34033;48.672;9.376;2022-09-02T13:34:47;1.10;;;1.10;;
13311;SDS011;34033;48.672;9.376;2022-09-02T13:37:31;1.10;;;1.10;;
13311;SDS011;34033;48.672;9.376;2022-09-02T13:40:00;1.30;;;1.30;;
13311;SDS011;34033;48.672;9.376;2022-09-02T13:42:30;1.27;;;1.15;;
13311;SDS011;34033;48.672;9.376;2022-09-02T13:45:09;1.20;;;1.20;;
13311;SDS011;34033;48.672;9.376;2022-09-02T13:47:42;1.50;;;1.40;;
13311;SDS011;34033;48.672;9.376;2022-09-02T13:50:10;1.10;;;1.10;;
13311;SDS011;34033;48.672;9.376;2022-09-02T13:52:39;1.10;;;1.10;;
13311;SDS011;34033;48.672;9.376;2022-09-02T13:55:06;1.40;;;1.10;;
13311;SDS011;34033;48.672;9.376;2022-09-02T13:57:36;1.00;;;1.00;;
13311;SDS011;34033;48.672;9.376;2022-09-02T14:00:02;1.10;;;1.10;;
13311;SDS011;34033;48.672;9.376;2022-09-02T14:02:30;1.10;;;1.10;;
13311;SDS011;34033;48.672;9.376;2022-09-02T14:05:04;1.40;;;1.30;;
13311;SDS011;34033;48.672;9.376;2022-09-02T14:07:39;1.20;;;1.20;;
13311;SDS011;34033;48.672;9.376;2022-09-02T14:10:08;1.77;;;1.00;;
13311;SDS011;34033;48.672;9.376;2022-09-02T14:12:36;1.00;;;1.00;;
13311;SDS011;34033;48.672;9.376;2022-09-02T14:15:04;1.00;;;1.00;;
13311;SDS011;34033;48.672;9.376;2022-09-02T14:17:31;1.20;;;1.00;;
13311;SDS011;34033;48.672;9.376;2022-09-02T14:22:40;1.33;;;1.27;;
13311;SDS011;34033;48.672;9.376;2022-09-02T14:25:16;2.65;;;1.33;;
13311;SDS011;34033;48.672;9.376;2022-09-02T14:27:55;2.08;;;1.88;;
13311;SDS011;34033;48.672;9.376;2022-09-02T14:38:25;1.10;;;1.10;;
13311;SDS011;34033;48.672;9.376;2022-09-02T14:41:00;1.08;;;1.08;;
13311;SDS011;34033;48.672;9.376;2022-09-02T14:43:42;2.92;;;1.08;;
13311;SDS011;34033;48.672;9.376;2022-09-02T14:51:38;1.00;;;1.00;;
13311;SDS011;34033;48.672;9.376;2022-09-02T14:54:10;1.20;;;0.95;;
13311;SDS011;34033;48.672;9.376;2022-09-02T14:56:43;1.08;;;0.98;;
13311;SDS011;34033;48.672;9.376;2022-09-02T14:59:12;0.90;;;0.90;;
13311;SDS011;34033;48.672;9.376;2022-09-02T15:01:41;0.90;;;0.90;;
13311;SDS011;34033;48.672;9.376;2022-09-02T15:04:10;0.85;;;0.85;;
13311;SDS011;34033;48.672;9.376;2022-09-02T15:06:37;1.50;;;1.40;;
13311;SDS011;34033;48.672;9.376;2022-09-02T15:09:03;1.00;;;1.00;;
13311;SDS011;34033;48.672;9.376;2022-09-02T15:11:28;0.90;;;0.90;;
13311;SDS011;34033;48.672;9.376;2022-09-02T15:13:54;1.20;;;1.17;;
13311;SDS011;34033;48.672;9.376;2022-09-02T15:16:19;0.90;;;0.90;;
13311;SDS011;34033;48.672;9.376;2022-09-02T15:18:45;0.85;;;0.80;;
13311;SDS011;34033;48.672;9.376;2022-09-02T15:21:10;1.00;;;1.00;;
13311;SDS011;34033;48.672;9.376;2022-09-02T15:23:35;1.00;;;1.00;;
13311;SDS011;34033;48.672;9.376;2022-09-02T15:26:04;0.88;;;0.88;;
13311;SDS011;34033;48.672;9.376;2022-09-02T15:28:30;0.90;;;0.90;;
13311;SDS011;34033;48.672;9.376;2022-09-02T15:30:56;1.13;;;1.13;;
13311;SDS011;34033;48.672;9.376;2022-09-02T15:33:23;0.80;;;0.80;;
13311;SDS011;34033;48.672;9.376;2022-09-02T15:35:48;1.00;;;1.00;;
13311;SDS011;34033;48.672;9.376;2022-09-02T15:38:14;0.98;;;0.88;;
13311;SDS011;34033;48.672;9.376;2022-09-02T15:40:40;0.90;;;0.90;;
13311;SDS011;34033;48.672;9.376;2022-09-02T15:43:05;1.10;;;1.10;;
13311;SDS011;34033;48.672;9.376;2022-09-02T15:45:31;0.90;;;0.90;;
13311;SDS011;34033;48.672;9.376;2022-09-02T15:47:56;1.75;;;0.90;;
13311;SDS011;34033;48.672;9.376;2022-09-02T15:50:22;1.00;;;1.00;;
13311;SDS011;34033;48.672;9.376;2022-09-02T15:52:48;0.95;;;0.95;;
13311;SDS011;34033;48.672;9.376;2022-09-02T15:55:13;0.90;;;0.90;;
13311;SDS011;34033;48.672;9.376;2022-09-02T15:57:39;0.80;;;0.80;;
13311;SDS011;34033;48.672;9.376;2022-09-02T16:00:05;2.38;;;1.05;;
13311;SDS011;34033;48.672;9.376;2022-09-02T16:02:31;3.70;;;1.08;;
13311;SDS011;34033;48.672;9.376;2022-09-02T16:04:57;1.00;;;1.00;;
13311;SDS011;34033;48.672;9.376;2022-09-02T16:07:22;1.75;;;1.00;;
13311;SDS011;34033;48.672;9.376;2022-09-02T16:09:48;1.00;;;1.00;;
13311;SDS011;34033;48.672;9.376;2022-09-02T16:12:13;1.25;;;1.00;;
13311;SDS011;34033;48.672;9.376;2022-09-02T16:14:39;0.93;;;0.93;;
13311;SDS011;34033;48.672;9.376;2022-09-02T16:17:04;0.88;;;0.88;;
13311;SDS011;34033;48.672;9.376;2022-09-02T16:19:32;0.90;;;0.90;;
13311;SDS011;34033;48.672;9.376;2022-09-02T16:21:57;2.28;;;1.15;;
13311;SDS011;34033;48.672;9.376;2022-09-02T16:24:23;1.13;;;1.13;;
13311;SDS011;34033;48.672;9.376;2022-09-02T16:26:49;0.95;;;0.95;;
13311;SDS011;34033;48.672;9.376;2022-09-02T16:29:15;1.38;;;1.27;;
13311;SDS011;34033;48.672;9.376;2022-09-02T16:31:42;1.00;;;1.00;;
13311;SDS011;34033;48.672;9.376;2022-09-02T16:36:35;1.63;;;1.03;;
13311;SDS011;34033;48.672;9.376;2022-09-02T16:39:03;1.27;;;1.17;;
13311;SDS011;34033;48.672;9.376;2022-09-02T16:41:33;1.20;;;1.10;;
13311;SDS011;34033;48.672;9.376;2022-09-02T16:44:03;1.47;;;1.37;;
13311;SDS011;34033;48.672;9.376;2022-09-02T16:46:31;1.53;;;1.30;;
13311;SDS011;34033;48.672;9.376;2022-09-02T16:48:57;1.50;;;1.40;;
13311;SDS011;34033;48.672;9.376;2022-09-02T16:51:23;1.63;;;1.30;;
13311;SDS011;34033;48.672;9.376;2022-09-02T16:53:53;1.20;;;1.20;;
13311;SDS011;34033;48.672;9.376;2022-09-02T16:56:20;1.00;;;1.00;;
13311;SDS011;34033;48.672;9.376;2022-09-02T16:58:45;1.00;;;1.00;;
13311;SDS011;34033;48.672;9.376;2022-09-02T17:01:11;1.93;;;1.70;;
13311;SDS011;34033;48.672;9.376;2022-09-02T17:03:38;1.63;;;1.53;;
13311;SDS011;34033;48.672;9.376;2022-09-02T17:06:04;1.43;;;1.33;;
13311;SDS011;34033;48.672;9.376;2022-09-02T17:08:30;1.20;;;1.10;;
13311;SDS011;34033;48.672;9.376;2022-09-02T17:11:09;1.30;;;1.20;;
13311;SDS011;34033;48.672;9.376;2022-09-02T17:13:35;2.27;;;0.90;;
13311;SDS011;34033;48.672;9.376;2022-09-02T17:16:01;3.23;;;1.43;;
13311;SDS011;34033;48.672;9.376;2022-09-02T17:18:27;1.60;;;1.20;;
13311;SDS011;34033;48.672;9.376;2022-09-02T17:21:07;2.70;;;1.73;;
13311;SDS011;34033;48.672;9.376;2022-09-02T17:23:44;2.50;;;1.40;;
13311;SDS011;34033;48.672;9.376;2022-09-02T17:26:11;4.33;;;1.87;;
13311;SDS011;34033;48.672;9.376;2022-09-02T17:28:36;2.83;;;1.97;;
13311;SDS011;34033;48.672;9.376;2022-09-02T17:33:59;3.50;;;1.93;;
13311;SDS011;34033;48.672;9.376;2022-09-02T17:36:27;4.67;;;1.87;;